createdAt,value
2018-07-02T00:00:35.632Z,1.30
2018-07-02T00:01:35.847Z,1.20
2018-07-02T00:02:36.041Z,1.60
2018-07-02T00:03:36.228Z,1.40
2018-07-02T00:04:36.423Z,1.30
2018-07-02T00:05:36.637Z,1.30
2018-07-02T00:06:36.824Z,1.60
2018-07-02T00:07:37.035Z,1.40
2018-07-02T00:08:37.222Z,1.50
2018-07-02T00:09:37.423Z,1.20
2018-07-02T00:10:37.619Z,1.30
2018-07-02T00:11:37.815Z,1.30
2018-07-02T00:12:38.012Z,1.30
2018-07-02T00:13:38.194Z,1.30
2018-07-02T00:14:38.399Z,1.40
2018-07-02T00:15:38.587Z,1.20
2018-07-02T00:16:38.793Z,1.20
2018-07-02T00:17:38.991Z,1.50
2018-07-02T00:18:39.193Z,1.30
2018-07-02T00:19:39.406Z,1.40
2018-07-02T00:20:39.618Z,1.30
2018-07-02T00:21:39.797Z,1.40
2018-07-02T00:22:39.986Z,1.20
2018-07-02T00:23:40.194Z,1.30
2018-07-02T00:24:40.402Z,1.20
2018-07-02T00:25:40.591Z,1.10
2018-07-02T00:26:40.796Z,1.30
2018-07-02T00:27:41.002Z,1.40
2018-07-02T00:28:41.210Z,1.60
2018-07-02T00:29:41.421Z,1.10
2018-07-02T00:30:41.614Z,1.60
2018-07-02T00:31:41.879Z,1.30
2018-07-02T00:32:42.046Z,1.40
2018-07-02T00:33:42.241Z,1.40
2018-07-02T00:34:42.426Z,1.40
2018-07-02T00:35:42.610Z,1.30
2018-07-02T00:36:42.808Z,1.30
2018-07-02T00:37:43.004Z,1.40
2018-07-02T00:38:43.246Z,1.40
2018-07-02T00:39:43.449Z,1.30
2018-07-02T00:40:43.638Z,1.30
2018-07-02T00:41:43.827Z,1.40
2018-07-02T00:42:44.034Z,1.40
2018-07-02T00:43:44.219Z,1.40
2018-07-02T00:44:44.434Z,1.20
2018-07-02T00:45:44.637Z,1.20
2018-07-02T00:46:44.877Z,1.40
2018-07-02T00:47:45.019Z,1.20
2018-07-02T00:48:45.212Z,1.10
2018-07-02T00:49:45.416Z,1.40
2018-07-02T00:50:45.628Z,1.20
2018-07-02T00:51:45.832Z,1.10
2018-07-02T00:52:46.038Z,1.20
2018-07-02T00:53:46.232Z,1.20
2018-07-02T00:54:46.417Z,1.30
2018-07-02T00:55:46.609Z,1.40
2018-07-02T00:56:46.825Z,1.10
2018-07-02T00:57:47.029Z,1.30
2018-07-02T00:58:47.224Z,1.30
2018-07-02T00:59:47.415Z,1.40
2018-07-02T01:00:47.594Z,1.30
2018-07-02T01:01:47.781Z,1.30
2018-07-02T01:02:47.987Z,1.30
2018-07-02T01:03:48.193Z,1.50
2018-07-02T01:04:48.379Z,1.30
2018-07-02T01:05:48.569Z,1.20
2018-07-02T01:06:48.779Z,1.30
2018-07-02T01:07:48.964Z,1.10
2018-07-02T01:08:49.167Z,1.30
2018-07-02T01:09:49.370Z,1.40
2018-07-02T01:10:49.584Z,1.60
2018-07-02T01:11:49.773Z,1.20
2018-07-02T01:12:49.978Z,1.30
2018-07-02T01:13:50.182Z,1.20
2018-07-02T01:14:50.381Z,1.40
2018-07-02T01:15:50.593Z,1.20
2018-07-02T01:16:50.792Z,1.30
2018-07-02T01:17:51.000Z,1.30
2018-07-02T01:18:51.185Z,1.40
2018-07-02T01:19:51.396Z,1.30
2018-07-02T01:20:51.605Z,1.30
2018-07-02T01:21:51.816Z,1.30
2018-07-02T01:22:52.021Z,1.20
2018-07-02T01:23:52.205Z,1.30
2018-07-02T01:24:52.394Z,1.30
2018-07-02T01:25:52.613Z,1.40
2018-07-02T01:26:52.810Z,1.40
2018-07-02T01:27:53.024Z,1.10
2018-07-02T01:28:53.240Z,1.20
2018-07-02T01:29:53.426Z,1.30
2018-07-02T01:30:53.628Z,1.40
2018-07-02T01:31:53.813Z,1.30
2018-07-02T01:32:54.009Z,1.30
2018-07-02T01:33:54.194Z,1.20
2018-07-02T01:34:54.394Z,1.20
2018-07-02T01:35:54.581Z,1.30
2018-07-02T01:36:54.777Z,1.30
2018-07-02T01:37:54.985Z,1.30
2018-07-02T01:38:55.175Z,1.10
2018-07-02T01:39:55.367Z,1.30
2018-07-02T01:40:55.555Z,1.50
2018-07-02T01:41:55.759Z,1.20
2018-07-02T01:42:55.959Z,1.20
2018-07-02T01:43:56.144Z,1.20
2018-07-02T01:44:56.354Z,1.30
2018-07-02T01:45:56.554Z,1.30
2018-07-02T01:46:56.760Z,1.20
2018-07-02T01:47:56.947Z,1.20
2018-07-02T01:48:57.156Z,1.20
2018-07-02T01:49:57.345Z,1.20
2018-07-02T01:50:57.535Z,1.30
2018-07-02T01:51:57.726Z,1.20
2018-07-02T01:52:57.923Z,1.10
2018-07-02T01:53:58.127Z,1.50
2018-07-02T01:54:58.305Z,1.30
2018-07-02T01:55:58.494Z,1.20
2018-07-02T01:56:58.717Z,1.20
2018-07-02T01:57:58.894Z,1.30
2018-07-02T01:58:59.092Z,1.30
2018-07-02T01:59:59.274Z,1.30
2018-07-02T02:00:59.485Z,1.20
2018-07-02T02:01:59.683Z,1.40
2018-07-02T02:02:59.852Z,1.10
2018-07-02T02:04:00.067Z,1.20
2018-07-02T02:05:00.255Z,1.40
2018-07-02T02:06:00.448Z,1.30
2018-07-02T02:07:00.634Z,1.50
2018-07-02T02:08:00.824Z,1.50
2018-07-02T02:09:01.039Z,1.30
2018-07-02T02:10:01.230Z,1.30
2018-07-02T02:11:01.425Z,1.30
2018-07-02T02:12:01.634Z,1.50
2018-07-02T02:13:01.826Z,1.40
2018-07-02T02:14:02.037Z,1.30
2018-07-02T02:15:02.218Z,1.40
2018-07-02T02:16:02.406Z,1.50
2018-07-02T02:17:02.609Z,1.30
2018-07-02T02:18:02.788Z,1.40
2018-07-02T02:19:02.972Z,1.30
2018-07-02T02:20:03.179Z,1.20
2018-07-02T02:21:03.392Z,1.20
2018-07-02T02:22:03.569Z,1.20
2018-07-02T02:23:03.773Z,1.20
2018-07-02T02:24:03.952Z,1.30
2018-07-02T02:25:04.159Z,1.20
2018-07-02T02:26:04.345Z,1.30
2018-07-02T02:27:04.535Z,1.20
2018-07-02T02:28:04.745Z,1.30
2018-07-02T02:29:04.925Z,1.10
2018-07-02T02:30:05.114Z,1.30
2018-07-02T02:31:05.309Z,1.30
2018-07-02T02:32:05.495Z,1.40
2018-07-02T02:33:05.686Z,1.60
2018-07-02T02:34:05.863Z,1.30
2018-07-02T02:35:06.058Z,1.30
2018-07-02T02:36:06.257Z,1.40
2018-07-02T02:37:06.473Z,1.40
2018-07-02T02:38:06.658Z,1.30
2018-07-02T02:39:06.845Z,1.30
2018-07-02T02:40:07.050Z,1.40
2018-07-02T02:41:07.240Z,1.40
2018-07-02T02:42:07.426Z,1.40
2018-07-02T02:43:07.650Z,1.50
2018-07-02T02:44:07.843Z,1.40
2018-07-02T02:45:08.028Z,1.50
2018-07-02T02:46:08.212Z,1.20
2018-07-02T02:47:08.406Z,1.20
2018-07-02T02:48:08.617Z,1.50
2018-07-02T02:49:08.807Z,1.40
2018-07-02T02:50:09.002Z,1.30
2018-07-02T02:51:09.198Z,1.20
2018-07-02T02:52:09.386Z,1.30
2018-07-02T02:53:09.593Z,1.20
2018-07-02T02:54:09.782Z,1.40
2018-07-02T02:55:09.965Z,1.30
2018-07-02T02:56:10.175Z,1.30
2018-07-02T02:57:10.357Z,1.30
2018-07-02T02:58:10.566Z,1.40
2018-07-02T02:59:10.752Z,1.40
2018-07-02T03:00:10.935Z,1.30
2018-07-02T03:01:11.125Z,1.40
2018-07-02T03:02:11.326Z,1.20
2018-07-02T03:03:11.537Z,1.40
2018-07-02T03:04:11.739Z,1.30
2018-07-02T03:05:11.930Z,1.30
2018-07-02T03:06:12.116Z,1.30
2018-07-02T03:07:12.328Z,1.60
2018-07-02T03:08:12.523Z,1.30
2018-07-02T03:09:12.724Z,1.40
2018-07-02T03:10:12.932Z,1.40
2018-07-02T03:11:13.128Z,1.30
2018-07-02T03:12:13.312Z,1.40
2018-07-02T03:13:13.525Z,1.50
2018-07-02T03:14:13.737Z,1.30
2018-07-02T03:15:13.921Z,1.40
2018-07-02T03:16:14.126Z,1.40
2018-07-02T03:17:14.324Z,1.40
2018-07-02T03:18:14.514Z,1.30
2018-07-02T03:19:14.716Z,1.50
2018-07-02T03:20:14.936Z,1.30
2018-07-02T03:21:15.106Z,1.40
2018-07-02T03:22:15.293Z,1.30
2018-07-02T03:23:15.480Z,1.40
2018-07-02T03:24:15.680Z,1.50
2018-07-02T03:25:15.890Z,1.30
2018-07-02T03:26:16.079Z,1.20
2018-07-02T03:27:16.278Z,1.30
2018-07-02T03:28:16.475Z,1.50
2018-07-02T03:29:16.682Z,1.40
2018-07-02T03:30:16.892Z,1.50
2018-07-02T03:31:17.090Z,1.40
2018-07-02T03:32:17.284Z,1.50
2018-07-02T03:33:17.486Z,1.40
2018-07-02T03:34:17.683Z,1.50
2018-07-02T03:35:17.891Z,1.50
2018-07-02T03:36:18.105Z,1.60
2018-07-02T03:37:18.297Z,1.70
2018-07-02T03:38:18.528Z,1.50
2018-07-02T03:39:18.724Z,1.50
2018-07-02T03:40:18.910Z,1.50
2018-07-02T03:41:19.098Z,1.60
2018-07-02T03:42:19.297Z,1.60
2018-07-02T03:43:19.486Z,1.70
2018-07-02T03:44:19.679Z,1.70
2018-07-02T03:45:19.864Z,1.50
2018-07-02T03:46:20.062Z,1.40
2018-07-02T03:47:20.269Z,1.30
2018-07-02T03:48:20.453Z,1.40
2018-07-02T03:49:20.651Z,1.60
2018-07-02T03:50:20.845Z,1.30
2018-07-02T03:51:21.018Z,1.50
2018-07-02T03:52:21.215Z,1.40
2018-07-02T03:53:21.410Z,1.40
2018-07-02T03:54:21.614Z,1.30
2018-07-02T03:55:21.835Z,1.40
2018-07-02T03:56:22.045Z,1.70
2018-07-02T03:57:22.229Z,1.30
2018-07-02T03:58:22.433Z,1.30
2018-07-02T03:59:22.626Z,1.40
2018-07-02T04:00:22.825Z,1.60
2018-07-02T04:01:23.044Z,1.40
2018-07-02T04:02:23.213Z,1.80
2018-07-02T04:03:23.405Z,1.60
2018-07-02T04:04:23.605Z,1.40
2018-07-02T04:05:23.806Z,1.40
2018-07-02T04:06:24.002Z,1.30
2018-07-02T04:07:24.187Z,1.10
2018-07-02T04:08:24.391Z,1.60
2018-07-02T04:09:24.596Z,1.20
2018-07-02T04:10:24.874Z,1.50
2018-07-02T04:11:24.952Z,1.50
2018-07-02T04:12:25.137Z,1.60
2018-07-02T04:13:25.348Z,1.50
2018-07-02T04:14:25.534Z,1.50
2018-07-02T04:15:25.728Z,1.60
2018-07-02T04:16:25.936Z,1.60
2018-07-02T04:17:26.121Z,1.60
2018-07-02T04:18:26.319Z,1.70
2018-07-02T04:19:26.523Z,1.50
2018-07-02T04:20:26.723Z,1.50
2018-07-02T04:21:26.906Z,1.80
2018-07-02T04:22:27.106Z,1.50
2018-07-02T04:23:27.311Z,1.50
2018-07-02T04:24:27.537Z,1.50
2018-07-02T04:25:27.746Z,1.60
2018-07-02T04:26:27.959Z,1.50
2018-07-02T04:27:28.136Z,1.70
2018-07-02T04:28:28.346Z,1.40
2018-07-02T04:29:28.539Z,1.40
2018-07-02T04:30:28.742Z,1.50
2018-07-02T04:31:28.955Z,1.30
2018-07-02T04:32:29.142Z,1.50
2018-07-02T04:33:29.333Z,1.50
2018-07-02T04:34:29.516Z,1.40
2018-07-02T04:35:29.711Z,1.40
2018-07-02T04:36:29.916Z,1.50
2018-07-02T04:37:30.097Z,1.30
2018-07-02T04:38:30.310Z,1.50
2018-07-02T04:39:30.504Z,1.50
2018-07-02T04:40:30.714Z,1.40
2018-07-02T04:41:30.913Z,1.40
2018-07-02T04:42:31.197Z,1.50
2018-07-02T04:43:31.288Z,1.40
2018-07-02T04:44:31.479Z,1.30
2018-07-02T04:45:31.667Z,1.50
2018-07-02T04:46:31.877Z,1.40
2018-07-02T04:47:32.083Z,1.30
2018-07-02T04:48:32.299Z,1.40
2018-07-02T04:49:32.500Z,1.40
2018-07-02T04:50:32.711Z,1.40
2018-07-02T04:51:32.928Z,1.60
2018-07-02T04:52:33.111Z,1.40
2018-07-02T04:53:33.430Z,1.40
2018-07-02T04:54:33.509Z,1.40
2018-07-02T04:55:33.720Z,1.60
2018-07-02T04:56:33.936Z,1.40
2018-07-02T04:57:34.139Z,1.40
2018-07-02T04:58:34.358Z,1.50
2018-07-02T04:59:34.585Z,1.50
2018-07-02T05:00:34.778Z,1.40
2018-07-02T05:01:34.976Z,1.40
2018-07-02T05:02:35.170Z,1.50
2018-07-02T05:03:35.380Z,1.30
2018-07-02T05:04:35.608Z,1.30
2018-07-02T05:05:35.807Z,1.50
2018-07-02T05:06:36.030Z,1.50
2018-07-02T05:07:36.233Z,1.30
2018-07-02T05:08:36.442Z,1.50
2018-07-02T05:09:36.635Z,1.50
2018-07-02T05:10:36.826Z,1.60
2018-07-02T05:11:37.078Z,1.40
2018-07-02T05:12:37.166Z,1.50
2018-07-02T05:13:37.367Z,1.50
2018-07-02T05:14:37.565Z,1.40
2018-07-02T05:15:37.780Z,1.50
2018-07-02T05:16:37.971Z,1.60
2018-07-02T05:17:38.185Z,1.30
2018-07-02T05:18:38.402Z,1.30
2018-07-02T05:19:38.612Z,1.40
2018-07-02T05:20:38.809Z,1.40
2018-07-02T05:21:39.016Z,1.50
2018-07-02T05:22:39.222Z,1.50
2018-07-02T05:23:39.438Z,1.40
2018-07-02T05:24:39.632Z,1.40
2018-07-02T05:25:39.831Z,1.30
2018-07-02T05:26:40.026Z,1.30
2018-07-02T05:27:40.220Z,1.70
2018-07-02T05:28:40.424Z,1.40
2018-07-02T05:29:40.627Z,1.40
2018-07-02T05:30:40.832Z,1.50
2018-07-02T05:31:41.046Z,1.40
2018-07-02T05:32:41.247Z,1.50
2018-07-02T05:33:41.467Z,1.50
2018-07-02T05:34:41.659Z,1.50
2018-07-02T05:35:41.875Z,1.30
2018-07-02T05:36:42.092Z,1.30
2018-07-02T05:37:42.285Z,1.50
2018-07-02T05:38:42.500Z,1.50
2018-07-02T05:39:42.678Z,1.40
2018-07-02T05:40:42.891Z,1.40
2018-07-02T05:41:43.092Z,1.60
2018-07-02T05:42:43.305Z,1.20
2018-07-02T05:43:43.501Z,1.50
2018-07-02T05:44:43.696Z,1.30
2018-07-02T05:45:43.906Z,1.70
2018-07-02T05:46:44.110Z,1.30
2018-07-02T05:47:44.303Z,1.40
2018-07-02T05:48:44.519Z,1.50
2018-07-02T05:49:44.729Z,1.30
2018-07-02T05:50:44.933Z,1.10
2018-07-02T05:51:45.125Z,1.30
2018-07-02T05:52:45.320Z,1.50
2018-07-02T05:53:45.510Z,1.30
2018-07-02T05:54:45.707Z,1.30
2018-07-02T05:55:45.922Z,1.20
2018-07-02T05:56:46.121Z,1.10
2018-07-02T05:57:46.336Z,1.60
2018-07-02T05:58:46.557Z,1.30
2018-07-02T05:59:46.768Z,1.10
2018-07-02T06:00:46.993Z,1.10
2018-07-02T06:01:47.193Z,1.40
2018-07-02T06:02:47.412Z,1.10
2018-07-02T06:03:47.626Z,1.20
2018-07-02T06:04:47.811Z,1.20
2018-07-02T06:05:48.013Z,1.10
2018-07-02T06:06:48.227Z,1.10
2018-07-02T06:07:48.559Z,1.00
2018-07-02T06:08:48.666Z,1.10
2018-07-02T06:09:48.856Z,1.30
2018-07-02T06:10:49.077Z,1.20
2018-07-02T06:11:49.294Z,1.10
2018-07-02T06:12:49.501Z,1.20
2018-07-02T06:13:49.716Z,1.20
2018-07-02T06:14:49.917Z,1.00
2018-07-02T06:15:50.115Z,1.20
2018-07-02T06:16:50.340Z,1.30
2018-07-02T06:17:50.560Z,1.20
2018-07-02T06:18:50.773Z,1.20
2018-07-02T06:19:50.975Z,1.10
2018-07-02T06:20:51.169Z,1.30
2018-07-02T06:21:51.447Z,1.10
2018-07-02T06:22:51.526Z,1.10
2018-07-02T06:23:51.748Z,1.10
2018-07-02T06:24:52.069Z,1.10
2018-07-02T06:25:52.162Z,1.10
2018-07-02T06:26:52.379Z,1.00
2018-07-02T06:27:52.582Z,1.10
2018-07-02T06:28:52.772Z,0.90
2018-07-02T06:29:52.985Z,1.00
2018-07-02T06:30:53.199Z,1.10
2018-07-02T06:31:53.412Z,1.10
2018-07-02T06:32:53.620Z,1.00
2018-07-02T06:33:53.820Z,1.00
2018-07-02T06:34:54.019Z,1.00
2018-07-02T06:35:54.218Z,1.00
2018-07-02T06:36:54.414Z,1.00
2018-07-02T06:37:54.621Z,1.10
2018-07-02T06:38:54.839Z,1.00
2018-07-02T06:39:55.067Z,0.90
2018-07-02T06:40:55.263Z,0.90
2018-07-02T06:41:55.544Z,1.00
2018-07-02T06:42:55.702Z,0.90
2018-07-02T06:43:55.920Z,1.20
2018-07-02T06:44:56.116Z,1.00
2018-07-02T06:45:56.324Z,1.00
2018-07-02T06:46:56.541Z,1.00
2018-07-02T06:47:56.766Z,1.00
2018-07-02T06:48:56.988Z,1.10
2018-07-02T06:49:57.206Z,0.90
2018-07-02T06:50:57.399Z,1.00
2018-07-02T06:51:57.610Z,1.00
2018-07-02T06:52:57.819Z,1.00
2018-07-02T06:53:58.031Z,1.00
2018-07-02T06:54:58.253Z,1.00
2018-07-02T06:55:58.479Z,1.00
2018-07-02T06:56:58.684Z,0.90
2018-07-02T06:57:58.877Z,1.00
2018-07-02T06:58:59.079Z,1.10
2018-07-02T06:59:59.287Z,1.00
2018-07-02T07:00:59.508Z,1.00
2018-07-02T07:01:59.714Z,1.00
2018-07-02T07:02:59.903Z,1.00
2018-07-02T07:04:00.121Z,0.90
2018-07-02T07:06:31.956Z,0.90
2018-07-02T07:07:32.165Z,0.90
2018-07-02T07:08:32.369Z,0.90
2018-07-02T07:09:32.567Z,0.80
2018-07-02T07:10:32.766Z,1.00
2018-07-02T07:11:32.972Z,0.80
2018-07-02T07:12:33.186Z,0.80
2018-07-02T07:13:33.383Z,0.90
2018-07-02T07:14:33.604Z,0.80
2018-07-02T07:15:33.879Z,0.90
2018-07-02T07:16:34.047Z,0.70
2018-07-02T07:17:34.270Z,0.90
2018-07-02T07:18:34.472Z,0.90
2018-07-02T07:19:34.681Z,0.80
2018-07-02T07:20:34.907Z,1.00
2018-07-02T07:21:35.123Z,1.30
2018-07-02T07:22:35.334Z,0.70
2018-07-02T07:23:35.604Z,0.80
2018-07-02T07:24:35.705Z,0.90
2018-07-02T07:25:35.954Z,0.90
2018-07-02T07:26:36.138Z,0.90
2018-07-02T07:27:36.408Z,0.80
2018-07-02T07:28:36.559Z,0.90
2018-07-02T07:29:36.761Z,0.80
2018-07-02T07:30:37.019Z,0.80
2018-07-02T07:31:37.222Z,0.90
2018-07-02T07:32:37.430Z,0.80
2018-07-02T07:33:37.650Z,0.90
2018-07-02T07:34:37.840Z,0.90
2018-07-02T07:35:38.059Z,0.80
2018-07-02T07:36:38.263Z,0.80
2018-07-02T07:37:38.467Z,0.90
2018-07-02T07:38:38.694Z,0.80
2018-07-02T07:39:38.923Z,0.90
2018-07-02T07:40:39.153Z,0.80
2018-07-02T07:41:39.344Z,0.80
2018-07-02T07:42:39.570Z,0.90
2018-07-02T07:43:39.776Z,0.80
2018-07-02T07:44:39.996Z,0.80
2018-07-02T07:45:40.194Z,0.70
2018-07-02T07:46:40.414Z,0.80
2018-07-02T07:47:40.633Z,0.70
2018-07-02T07:48:40.864Z,0.90
2018-07-02T07:49:41.076Z,0.80
2018-07-02T07:50:41.291Z,0.70
2018-07-02T07:51:41.489Z,0.80
2018-07-02T07:52:41.688Z,0.90
2018-07-02T07:53:41.912Z,0.70
2018-07-02T07:54:42.111Z,0.70
2018-07-02T07:55:42.311Z,0.80
2018-07-02T07:56:42.513Z,0.80
2018-07-02T07:57:42.727Z,0.80
2018-07-02T07:58:42.953Z,0.80
2018-07-02T07:59:43.171Z,0.80
2018-07-02T08:00:43.385Z,0.80
2018-07-02T08:01:43.606Z,0.80
2018-07-02T08:02:43.826Z,0.80
2018-07-02T08:03:44.059Z,0.70
2018-07-02T08:04:44.238Z,0.80
2018-07-02T08:05:44.443Z,0.80
2018-07-02T08:06:44.647Z,0.80
2018-07-02T08:07:44.868Z,0.80
2018-07-02T08:08:45.063Z,0.70
2018-07-02T08:11:17.477Z,0.80
2018-07-02T08:12:17.163Z,0.70
2018-07-02T08:13:17.367Z,0.80
2018-07-02T08:14:17.576Z,0.80
2018-07-02T08:15:17.804Z,0.80
2018-07-02T08:16:18.006Z,0.70
2018-07-02T08:17:18.225Z,1.00
2018-07-02T08:18:18.447Z,0.90
2018-07-02T08:20:50.585Z,0.70
2018-07-02T08:21:50.774Z,0.80
2018-07-02T08:22:50.975Z,0.80
2018-07-02T08:23:51.234Z,0.80
2018-07-02T08:24:51.460Z,0.80
2018-07-02T08:25:51.664Z,0.80
2018-07-02T08:26:51.873Z,0.80
2018-07-02T08:27:52.073Z,0.70
2018-07-02T08:28:52.299Z,0.70
2018-07-02T08:29:52.518Z,0.70
2018-07-02T08:30:52.740Z,0.70
2018-07-02T08:31:52.938Z,0.80
2018-07-02T08:32:53.149Z,0.70
2018-07-02T08:33:53.340Z,0.80
2018-07-02T08:34:53.537Z,0.80
2018-07-02T08:35:53.756Z,0.80
2018-07-02T08:36:53.980Z,0.80
2018-07-02T08:37:54.179Z,0.70
2018-07-02T08:38:54.374Z,0.70
2018-07-02T08:39:54.597Z,0.90
2018-07-02T08:40:54.800Z,1.00
2018-07-02T08:41:55.024Z,0.80
2018-07-02T08:44:27.199Z,0.80
2018-07-02T08:45:27.382Z,0.80
2018-07-02T08:46:27.594Z,0.70
2018-07-02T08:47:27.791Z,0.70
2018-07-02T08:48:28.029Z,0.80
2018-07-02T08:49:28.246Z,0.80
2018-07-02T08:50:28.448Z,0.70
2018-07-02T08:51:28.687Z,0.90
2018-07-02T08:52:28.905Z,0.90
2018-07-02T08:53:29.113Z,0.60
2018-07-02T08:54:29.346Z,0.90
2018-07-02T08:55:29.568Z,0.70
2018-07-02T08:56:29.789Z,0.70
2018-07-02T08:57:30.021Z,0.70
2018-07-02T08:58:30.251Z,0.60
2018-07-02T08:59:30.445Z,0.80
2018-07-02T09:00:30.645Z,0.70
2018-07-02T09:01:30.859Z,0.80
2018-07-02T09:02:31.087Z,0.70
2018-07-02T09:03:31.318Z,0.80
2018-07-02T09:04:31.532Z,0.80
2018-07-02T09:05:31.734Z,0.80
2018-07-02T09:06:31.952Z,0.70
2018-07-02T09:07:32.155Z,0.70
2018-07-02T09:08:32.361Z,0.70
2018-07-02T09:09:32.583Z,0.80
2018-07-02T09:10:32.812Z,0.80
2018-07-02T09:11:33.036Z,0.90
2018-07-02T09:14:05.191Z,0.70
2018-07-02T09:15:05.376Z,0.80
2018-07-02T09:16:05.595Z,0.80
2018-07-02T09:17:05.813Z,0.80
2018-07-02T09:18:06.010Z,0.90
2018-07-02T09:19:06.224Z,0.80
2018-07-02T09:20:06.443Z,0.90
2018-07-02T09:21:06.695Z,0.80
2018-07-02T09:22:06.883Z,0.80
2018-07-02T09:23:07.113Z,0.70
2018-07-02T09:24:07.318Z,0.70
2018-07-02T09:25:07.527Z,0.70
2018-07-02T09:26:07.722Z,0.80
2018-07-02T09:27:07.924Z,0.80
2018-07-02T09:28:08.137Z,0.70
2018-07-02T09:29:08.344Z,0.80
2018-07-02T09:30:08.763Z,0.80
2018-07-02T09:31:08.789Z,0.90
2018-07-02T09:32:09.014Z,0.80
2018-07-02T09:33:09.224Z,0.80
2018-07-02T09:34:09.447Z,0.70
2018-07-02T09:35:09.665Z,0.80
2018-07-02T09:36:09.893Z,0.80
2018-07-02T09:37:10.120Z,0.80
2018-07-02T09:39:41.971Z,0.80
2018-07-02T09:40:42.158Z,0.90
2018-07-02T09:43:14.309Z,0.80
2018-07-02T09:44:14.508Z,0.90
2018-07-02T09:45:14.788Z,0.80
2018-07-02T09:46:14.955Z,0.70
2018-07-02T09:47:15.177Z,0.80
2018-07-02T09:48:15.369Z,0.80
2018-07-02T09:49:15.578Z,0.90
2018-07-02T09:50:15.774Z,0.70
2018-07-02T09:51:15.972Z,0.90
2018-07-02T09:52:16.173Z,0.80
2018-07-02T09:53:16.388Z,0.80
2018-07-02T09:54:16.589Z,0.80
2018-07-02T09:55:16.809Z,0.90
2018-07-02T09:57:48.963Z,0.80
2018-07-02T09:58:49.155Z,0.90
2018-07-02T09:59:49.364Z,0.80
2018-07-02T10:00:49.582Z,0.80
2018-07-02T10:01:49.794Z,1.00
2018-07-02T10:02:50.000Z,0.70
2018-07-02T10:03:50.202Z,0.80
2018-07-02T10:04:50.425Z,0.90
2018-07-02T10:05:50.637Z,0.80
2018-07-02T10:06:50.863Z,0.90
2018-07-02T10:07:51.081Z,1.00
2018-07-02T10:08:51.305Z,0.80
2018-07-02T10:09:51.494Z,1.00
2018-07-02T10:10:51.704Z,0.90
2018-07-02T10:11:51.902Z,0.80
2018-07-02T10:12:52.098Z,0.80
2018-07-02T10:15:24.522Z,0.80
2018-07-02T10:16:24.450Z,0.80
2018-07-02T10:17:24.696Z,0.80
2018-07-02T10:18:24.925Z,0.90
2018-07-02T10:19:25.132Z,0.90
2018-07-02T10:20:25.408Z,0.80
2018-07-02T10:21:25.545Z,0.80
2018-07-02T10:22:25.756Z,0.90
2018-07-02T10:23:25.997Z,0.90
2018-07-02T10:24:26.164Z,1.00
2018-07-02T10:25:26.366Z,0.80
2018-07-02T10:26:26.600Z,0.90
2018-07-02T10:27:26.815Z,0.90
2018-07-02T10:28:27.107Z,0.80
2018-07-02T10:29:27.277Z,0.80
2018-07-02T10:30:27.424Z,0.90
2018-07-02T10:31:27.835Z,0.90
2018-07-02T10:32:27.847Z,0.90
2018-07-02T10:33:28.043Z,1.00
2018-07-02T10:34:28.264Z,1.00
2018-07-02T10:35:28.470Z,1.00
2018-07-02T10:36:28.673Z,0.80
2018-07-02T10:37:28.907Z,0.90
2018-07-02T10:38:29.093Z,0.90
2018-07-02T10:39:29.327Z,0.90
2018-07-02T10:40:29.533Z,1.00
2018-07-02T10:41:29.767Z,0.90
2018-07-02T10:42:29.957Z,0.80
2018-07-02T10:43:30.180Z,0.80
2018-07-02T10:44:30.400Z,0.90
2018-07-02T10:45:30.614Z,0.90
2018-07-02T10:46:30.820Z,1.00
2018-07-02T10:47:31.024Z,1.10
2018-07-02T10:48:31.277Z,1.00
2018-07-02T10:49:31.454Z,1.00
2018-07-02T10:50:31.647Z,1.10
2018-07-02T10:51:31.846Z,1.00
2018-07-02T10:52:32.046Z,0.90
2018-07-02T10:53:32.248Z,1.00
2018-07-02T10:54:32.468Z,1.00
2018-07-02T10:55:32.731Z,1.20
2018-07-02T10:56:32.885Z,0.90
2018-07-02T10:57:33.100Z,1.00
2018-07-02T10:58:33.427Z,1.00
2018-07-02T10:59:33.506Z,1.10
2018-07-02T11:00:33.718Z,1.00
2018-07-02T11:01:33.919Z,1.00
2018-07-02T11:02:34.137Z,1.00
2018-07-02T11:03:34.332Z,1.20
2018-07-02T11:04:34.537Z,1.10
2018-07-02T11:05:34.728Z,1.20
2018-07-02T11:06:34.938Z,1.10
2018-07-02T11:07:35.163Z,1.30
2018-07-02T11:08:35.383Z,1.50
2018-07-02T11:09:35.599Z,1.00
2018-07-02T11:10:35.788Z,0.90
2018-07-02T11:11:35.983Z,1.10
2018-07-02T11:12:36.205Z,1.20
2018-07-02T11:13:36.423Z,1.10
2018-07-02T11:14:36.616Z,1.10
2018-07-02T11:15:36.811Z,1.30
2018-07-02T11:16:37.022Z,1.30
2018-07-02T11:17:37.217Z,1.00
2018-07-02T11:18:37.424Z,1.20
2018-07-02T11:19:37.654Z,1.30
2018-07-02T11:20:37.862Z,1.10
2018-07-02T11:21:38.078Z,1.10
2018-07-02T11:22:38.269Z,1.10
2018-07-02T11:23:38.502Z,1.00
2018-07-02T11:24:38.694Z,1.00
2018-07-02T11:25:38.904Z,1.20
2018-07-02T11:26:39.113Z,1.00
2018-07-02T11:27:39.305Z,1.00
2018-07-02T11:28:39.581Z,1.20
2018-07-02T11:29:39.642Z,1.20
2018-07-02T11:30:39.848Z,1.00
2018-07-02T11:31:40.066Z,1.20
2018-07-02T11:32:40.265Z,1.20
2018-07-02T11:33:40.476Z,1.10
2018-07-02T11:34:40.675Z,1.20
2018-07-02T11:35:40.894Z,1.20
2018-07-02T11:36:41.093Z,0.90
2018-07-02T11:37:41.285Z,1.10
2018-07-02T11:38:41.481Z,1.10
2018-07-02T11:39:41.690Z,1.20
2018-07-02T11:40:41.900Z,1.20
2018-07-02T11:41:42.103Z,1.10
2018-07-02T11:42:42.299Z,0.90
2018-07-02T11:43:42.514Z,1.10
2018-07-02T11:44:42.727Z,1.00
2018-07-02T11:45:42.936Z,1.10
2018-07-02T11:46:43.152Z,1.20
2018-07-02T11:47:43.370Z,1.10
2018-07-02T11:48:43.584Z,1.10
2018-07-02T11:49:43.799Z,1.10
2018-07-02T11:50:43.995Z,0.90
2018-07-02T11:51:44.198Z,1.00
2018-07-02T11:52:44.395Z,1.10
2018-07-02T11:53:44.584Z,1.50
2018-07-02T11:54:44.804Z,1.10
2018-07-02T11:55:44.997Z,1.10
2018-07-02T11:56:45.195Z,1.10
2018-07-02T11:57:45.498Z,1.00
2018-07-02T11:58:45.585Z,1.10
2018-07-02T11:59:45.806Z,1.10
2018-07-02T12:00:46.021Z,1.20
2018-07-02T12:01:46.260Z,1.50
2018-07-02T12:02:46.434Z,1.10
2018-07-02T12:03:46.663Z,1.10
2018-07-02T12:04:46.876Z,1.20
2018-07-02T12:05:47.085Z,1.10
2018-07-02T12:06:47.294Z,1.20
2018-07-02T12:07:47.513Z,1.20
2018-07-02T12:08:47.722Z,1.30
2018-07-02T12:09:47.912Z,1.10
2018-07-02T12:10:48.123Z,1.20
2018-07-02T12:11:48.329Z,1.30
2018-07-02T12:14:20.209Z,1.10
2018-07-02T12:15:20.395Z,1.00
2018-07-02T12:16:20.604Z,1.10
2018-07-02T12:17:20.823Z,1.20
2018-07-02T12:18:21.019Z,1.30
2018-07-02T12:20:53.177Z,1.00
2018-07-02T12:21:53.366Z,1.00
2018-07-02T12:22:53.564Z,1.20
2018-07-02T12:23:53.765Z,1.00
2018-07-02T12:24:53.982Z,1.10
2018-07-02T12:25:54.175Z,1.10
2018-07-02T12:26:54.397Z,1.00
2018-07-02T12:27:54.616Z,1.00
2018-07-02T12:28:54.822Z,1.10
2018-07-02T12:29:55.016Z,1.00
2018-07-02T12:30:55.207Z,1.00
2018-07-02T12:31:55.416Z,1.10
2018-07-02T12:32:55.625Z,0.80
2018-07-02T12:33:55.834Z,1.10
2018-07-02T12:34:56.033Z,1.00
2018-07-02T12:35:56.232Z,1.20
2018-07-02T12:36:56.461Z,1.00
2018-07-02T12:37:56.655Z,1.20
2018-07-02T12:40:28.532Z,1.00
2018-07-02T12:41:28.713Z,1.00
2018-07-02T12:44:01.424Z,1.10
2018-07-02T12:45:01.641Z,1.30
2018-07-02T12:46:01.855Z,1.10
2018-07-02T12:47:02.087Z,1.10
2018-07-02T12:48:02.285Z,1.10
2018-07-02T12:49:02.546Z,1.20
2018-07-02T12:50:02.636Z,1.10
2018-07-02T12:51:02.825Z,1.30
2018-07-02T12:52:03.039Z,1.20
2018-07-02T12:53:03.238Z,1.20
2018-07-02T12:54:03.510Z,1.10
2018-07-02T12:55:03.662Z,1.10
2018-07-02T12:56:03.864Z,1.20
2018-07-02T12:57:04.054Z,1.10
2018-07-02T12:58:04.270Z,1.10
2018-07-02T12:59:04.486Z,1.40
2018-07-02T13:00:04.697Z,1.20
2018-07-02T13:01:04.897Z,1.10
2018-07-02T13:02:06.050Z,1.20
2018-07-02T13:03:05.273Z,1.20
2018-07-02T13:04:05.461Z,1.10
2018-07-02T13:05:05.675Z,1.10
2018-07-02T13:06:05.899Z,1.00
2018-07-02T13:07:06.110Z,1.00
2018-07-02T13:08:06.316Z,1.00
2018-07-02T13:09:06.515Z,1.10
2018-07-02T13:10:06.708Z,1.20
2018-07-02T13:11:06.917Z,1.30
2018-07-02T13:12:07.125Z,1.00
2018-07-02T13:13:07.333Z,1.20
2018-07-02T13:14:07.558Z,1.10
2018-07-02T13:15:07.720Z,1.00
2018-07-02T13:16:07.924Z,1.00
2018-07-02T13:18:40.062Z,1.20
2018-07-02T13:19:40.254Z,1.20
2018-07-02T13:20:40.569Z,1.00
2018-07-02T13:21:40.677Z,1.20
2018-07-02T13:22:40.890Z,1.00
2018-07-02T13:23:41.122Z,1.10
2018-07-02T13:24:41.346Z,1.00
2018-07-02T13:25:41.701Z,1.00
2018-07-02T13:26:41.765Z,1.00
2018-07-02T13:29:13.935Z,1.10
2018-07-02T13:30:14.171Z,1.10
2018-07-02T13:31:14.290Z,1.40
2018-07-02T13:32:14.590Z,1.20
2018-07-02T13:33:14.716Z,1.00
2018-07-02T13:34:14.997Z,1.00
2018-07-02T13:35:15.083Z,1.10
2018-07-02T13:36:15.296Z,1.10
2018-07-02T13:37:15.476Z,1.20
2018-07-02T13:38:15.674Z,1.20
2018-07-02T13:39:15.864Z,0.90
2018-07-02T13:40:16.085Z,1.10
2018-07-02T13:41:16.274Z,1.10
2018-07-02T13:42:16.485Z,1.10
2018-07-02T13:43:16.705Z,1.20
2018-07-02T13:44:16.914Z,1.10